sensor_id;sensor_type;location;lat;lon;timestamp;temperature;humidity
3466;DHT22;1747;48.884;9.160;2022-08-21T00:01:19;17.10;99.90
3466;DHT22;1747;48.884;9.160;2022-08-21T00:03:47;16.90;99.90
3466;DHT22;1747;48.884;9.160;2022-08-21T00:06:14;16.80;99.90
3466;DHT22;1747;48.884;9.160;2022-08-21T00:08:43;16.90;99.90
3466;DHT22;1747;48.884;9.160;2022-08-21T00:11:10;16.80;99.90
3466;DHT22;1747;48.884;9.160;2022-08-21T00:13:38;17.00;99.90
3466;DHT22;1747;48.884;9.160;2022-08-21T00:16:05;17.00;99.90
3466;DHT22;1747;48.884;9.160;2022-08-21T00:18:32;17.10;99.90
3466;DHT22;1747;48.884;9.160;2022-08-21T00:20:59;17.10;99.90
3466;DHT22;1747;48.884;9.160;2022-08-21T00:23:26;17.10;99.90
3466;DHT22;1747;48.884;9.160;2022-08-21T00:25:54;17.20;99.90
3466;DHT22;1747;48.884;9.160;2022-08-21T00:28:21;17.20;99.90
3466;DHT22;1747;48.884;9.160;2022-08-21T00:30:48;17.20;99.90
3466;DHT22;1747;48.884;9.160;2022-08-21T00:33:16;17.20;99.90
3466;DHT22;1747;48.884;9.160;2022-08-21T00:35:43;17.20;99.90
3466;DHT22;1747;48.884;9.160;2022-08-21T00:38:10;17.10;99.90
3466;DHT22;1747;48.884;9.160;2022-08-21T00:40:40;17.00;99.90
3466;DHT22;1747;48.884;9.160;2022-08-21T00:43:12;16.90;99.90
3466;DHT22;1747;48.884;9.160;2022-08-21T00:45:40;16.80;99.90
3466;DHT22;1747;48.884;9.160;2022-08-21T00:48:07;16.80;99.90
3466;DHT22;1747;48.884;9.160;2022-08-21T00:50:36;16.70;99.90
3466;DHT22;1747;48.884;9.160;2022-08-21T00:53:06;16.60;99.90
3466;DHT22;1747;48.884;9.160;2022-08-21T00:55:34;16.70;99.90
3466;DHT22;1747;48.884;9.160;2022-08-21T00:58:04;16.60;99.90
3466;DHT22;1747;48.884;9.160;2022-08-21T01:00:38;16.60;99.90
3466;DHT22;1747;48.884;9.160;2022-08-21T01:03:06;16.50;99.90
3466;DHT22;1747;48.884;9.160;2022-08-21T01:05:34;16.30;99.90
3466;DHT22;1747;48.884;9.160;2022-08-21T01:08:01;16.20;99.90
3466;DHT22;1747;48.884;9.160;2022-08-21T01:10:28;16.10;99.90
3466;DHT22;1747;48.884;9.160;2022-08-21T01:12:56;15.90;99.90
3466;DHT22;1747;48.884;9.160;2022-08-21T01:15:27;15.90;99.90
3466;DHT22;1747;48.884;9.160;2022-08-21T01:17:57;15.90;99.90
3466;DHT22;1747;48.884;9.160;2022-08-21T01:20:25;16.00;99.90
3466;DHT22;1747;48.884;9.160;2022-08-21T01:22:53;16.10;99.90
3466;DHT22;1747;48.884;9.160;2022-08-21T01:25:20;16.10;99.90
3466;DHT22;1747;48.884;9.160;2022-08-21T01:27:47;16.20;99.90
3466;DHT22;1747;48.884;9.160;2022-08-21T01:30:18;16.20;99.90
3466;DHT22;1747;48.884;9.160;2022-08-21T01:32:46;16.20;99.90
3466;DHT22;1747;48.884;9.160;2022-08-21T01:35:16;16.30;99.90
3466;DHT22;1747;48.884;9.160;2022-08-21T01:37:44;16.30;99.90
3466;DHT22;1747;48.884;9.160;2022-08-21T01:40:13;16.30;99.90
3466;DHT22;1747;48.884;9.160;2022-08-21T01:42:41;16.30;99.90
3466;DHT22;1747;48.884;9.160;2022-08-21T01:45:10;16.30;99.90
3466;DHT22;1747;48.884;9.160;2022-08-21T01:47:37;16.30;99.90
3466;DHT22;1747;48.884;9.160;2022-08-21T01:50:06;16.30;99.90
3466;DHT22;1747;48.884;9.160;2022-08-21T01:52:34;16.30;99.90
3466;DHT22;1747;48.884;9.160;2022-08-21T01:55:02;16.30;99.90
3466;DHT22;1747;48.884;9.160;2022-08-21T01:57:30;16.20;99.90
3466;DHT22;1747;48.884;9.160;2022-08-21T01:59:58;16.10;99.90
3466;DHT22;1747;48.884;9.160;2022-08-21T02:02:25;15.90;99.90
3466;DHT22;1747;48.884;9.160;2022-08-21T02:04:52;15.80;99.90
3466;DHT22;1747;48.884;9.160;2022-08-21T02:07:19;15.80;99.90
3466;DHT22;1747;48.884;9.160;2022-08-21T02:09:46;15.80;99.90
3466;DHT22;1747;48.884;9.160;2022-08-21T02:12:13;15.80;99.90
3466;DHT22;1747;48.884;9.160;2022-08-21T02:14:41;15.90;99.90
3466;DHT22;1747;48.884;9.160;2022-08-21T02:17:08;15.90;99.90
3466;DHT22;1747;48.884;9.160;2022-08-21T02:19:35;15.90;99.90
3466;DHT22;1747;48.884;9.160;2022-08-21T02:22:03;15.90;99.90
3466;DHT22;1747;48.884;9.160;2022-08-21T02:24:30;15.80;99.90
3466;DHT22;1747;48.884;9.160;2022-08-21T02:26:56;15.60;99.90
3466;DHT22;1747;48.884;9.160;2022-08-21T02:29:23;15.60;99.90
3466;DHT22;1747;48.884;9.160;2022-08-21T02:31:51;15.60;99.90
3466;DHT22;1747;48.884;9.160;2022-08-21T02:34:18;15.50;99.90
3466;DHT22;1747;48.884;9.160;2022-08-21T02:36:45;15.50;99.90
3466;DHT22;1747;48.884;9.160;2022-08-21T02:39:12;15.50;99.90
3466;DHT22;1747;48.884;9.160;2022-08-21T02:41:39;15.40;99.90
3466;DHT22;1747;48.884;9.160;2022-08-21T02:44:06;15.40;99.90
3466;DHT22;1747;48.884;9.160;2022-08-21T02:46:33;15.40;99.90
3466;DHT22;1747;48.884;9.160;2022-08-21T02:49:01;15.30;99.90
3466;DHT22;1747;48.884;9.160;2022-08-21T02:51:28;15.30;99.90
3466;DHT22;1747;48.884;9.160;2022-08-21T02:53:55;15.20;99.90
3466;DHT22;1747;48.884;9.160;2022-08-21T02:56:22;15.20;99.90
3466;DHT22;1747;48.884;9.160;2022-08-21T02:58:51;15.20;99.90
3466;DHT22;1747;48.884;9.160;2022-08-21T03:01:18;15.20;99.90
3466;DHT22;1747;48.884;9.160;2022-08-21T03:03:46;15.20;99.90
3466;DHT22;1747;48.884;9.160;2022-08-21T03:06:18;15.30;99.90
3466;DHT22;1747;48.884;9.160;2022-08-21T03:08:46;15.30;99.90
3466;DHT22;1747;48.884;9.160;2022-08-21T03:11:13;15.30;99.90
3466;DHT22;1747;48.884;9.160;2022-08-21T03:13:41;15.20;99.90
3466;DHT22;1747;48.884;9.160;2022-08-21T03:16:09;15.10;99.90
3466;DHT22;1747;48.884;9.160;2022-08-21T03:18:36;15.10;99.90
3466;DHT22;1747;48.884;9.160;2022-08-21T03:21:03;14.90;99.90
3466;DHT22;1747;48.884;9.160;2022-08-21T03:23:32;14.90;99.90
3466;DHT22;1747;48.884;9.160;2022-08-21T03:25:59;14.90;99.90
3466;DHT22;1747;48.884;9.160;2022-08-21T03:28:26;14.90;99.90
3466;DHT22;1747;48.884;9.160;2022-08-21T03:30:54;14.90;99.90
3466;DHT22;1747;48.884;9.160;2022-08-21T03:33:22;14.80;99.90
3466;DHT22;1747;48.884;9.160;2022-08-21T03:35:57;14.80;99.90
3466;DHT22;1747;48.884;9.160;2022-08-21T03:38:26;14.80;99.90
3466;DHT22;1747;48.884;9.160;2022-08-21T03:40:55;14.80;99.90
3466;DHT22;1747;48.884;9.160;2022-08-21T03:43:22;14.70;99.90
3466;DHT22;1747;48.884;9.160;2022-08-21T03:45:49;14.60;99.90
3466;DHT22;1747;48.884;9.160;2022-08-21T03:48:16;14.60;99.90
3466;DHT22;1747;48.884;9.160;2022-08-21T03:50:43;14.60;99.90
3466;DHT22;1747;48.884;9.160;2022-08-21T03:53:13;14.60;99.90
3466;DHT22;1747;48.884;9.160;2022-08-21T03:55:40;14.60;99.90
3466;DHT22;1747;48.884;9.160;2022-08-21T03:58:09;14.60;99.90
3466;DHT22;1747;48.884;9.160;2022-08-21T04:00:36;14.60;99.90
3466;DHT22;1747;48.884;9.160;2022-08-21T04:03:03;14.60;99.90
3466;DHT22;1747;48.884;9.160;2022-08-21T04:05:30;14.60;99.90
3466;DHT22;1747;48.884;9.160;2022-08-21T04:08:00;14.50;99.90
3466;DHT22;1747;48.884;9.160;2022-08-21T04:10:29;14.50;99.90
3466;DHT22;1747;48.884;9.160;2022-08-21T04:12:57;14.60;99.90
3466;DHT22;1747;48.884;9.160;2022-08-21T04:15:26;14.60;99.90
3466;DHT22;1747;48.884;9.160;2022-08-21T04:17:53;14.60;99.90
3466;DHT22;1747;48.884;9.160;2022-08-21T04:20:21;14.60;99.90
3466;DHT22;1747;48.884;9.160;2022-08-21T04:22:48;14.60;99.90
3466;DHT22;1747;48.884;9.160;2022-08-21T04:25:16;14.60;99.90
3466;DHT22;1747;48.884;9.160;2022-08-21T04:27:44;14.70;99.90
3466;DHT22;1747;48.884;9.160;2022-08-21T04:30:12;14.70;99.90
3466;DHT22;1747;48.884;9.160;2022-08-21T04:32:43;14.70;99.90
3466;DHT22;1747;48.884;9.160;2022-08-21T04:35:11;14.70;99.90
3466;DHT22;1747;48.884;9.160;2022-08-21T04:37:38;14.80;99.90
3466;DHT22;1747;48.884;9.160;2022-08-21T04:40:07;14.80;99.90
3466;DHT22;1747;48.884;9.160;2022-08-21T04:42:41;14.80;99.90
3466;DHT22;1747;48.884;9.160;2022-08-21T04:45:09;14.80;99.90
3466;DHT22;1747;48.884;9.160;2022-08-21T04:47:36;14.80;99.90
3466;DHT22;1747;48.884;9.160;2022-08-21T04:50:05;14.80;99.90
3466;DHT22;1747;48.884;9.160;2022-08-21T04:52:32;14.80;99.90
3466;DHT22;1747;48.884;9.160;2022-08-21T04:55:00;14.70;99.90
3466;DHT22;1747;48.884;9.160;2022-08-21T04:57:27;14.70;99.90
3466;DHT22;1747;48.884;9.160;2022-08-21T04:59:54;14.80;99.90
3466;DHT22;1747;48.884;9.160;2022-08-21T05:02:21;14.70;99.90
3466;DHT22;1747;48.884;9.160;2022-08-21T05:04:51;14.70;99.90
3466;DHT22;1747;48.884;9.160;2022-08-21T05:07:24;14.70;99.90
3466;DHT22;1747;48.884;9.160;2022-08-21T05:09:52;14.70;99.90
3466;DHT22;1747;48.884;9.160;2022-08-21T05:12:20;14.60;99.90
3466;DHT22;1747;48.884;9.160;2022-08-21T05:14:48;14.70;99.90
3466;DHT22;1747;48.884;9.160;2022-08-21T05:17:14;14.70;99.90
3466;DHT22;1747;48.884;9.160;2022-08-21T05:19:41;14.70;99.90
3466;DHT22;1747;48.884;9.160;2022-08-21T05:22:08;14.70;99.90
3466;DHT22;1747;48.884;9.160;2022-08-21T05:24:37;14.80;99.90
3466;DHT22;1747;48.884;9.160;2022-08-21T05:27:04;14.90;99.90
3466;DHT22;1747;48.884;9.160;2022-08-21T05:29:32;15.10;99.90
3466;DHT22;1747;48.884;9.160;2022-08-21T05:32:00;15.20;99.90
3466;DHT22;1747;48.884;9.160;2022-08-21T05:34:27;15.20;99.90
3466;DHT22;1747;48.884;9.160;2022-08-21T05:36:53;15.30;99.90
3466;DHT22;1747;48.884;9.160;2022-08-21T05:39:20;15.40;99.90
3466;DHT22;1747;48.884;9.160;2022-08-21T05:41:48;15.50;99.90
3466;DHT22;1747;48.884;9.160;2022-08-21T05:44:15;15.60;99.90
3466;DHT22;1747;48.884;9.160;2022-08-21T05:46:42;15.80;99.90
3466;DHT22;1747;48.884;9.160;2022-08-21T05:49:10;15.90;99.90
3466;DHT22;1747;48.884;9.160;2022-08-21T05:51:38;16.00;99.90
3466;DHT22;1747;48.884;9.160;2022-08-21T05:54:05;16.00;99.90
3466;DHT22;1747;48.884;9.160;2022-08-21T05:56:32;16.10;99.90
3466;DHT22;1747;48.884;9.160;2022-08-21T05:59:01;16.20;99.90
3466;DHT22;1747;48.884;9.160;2022-08-21T06:01:27;16.20;99.90
3466;DHT22;1747;48.884;9.160;2022-08-21T06:03:54;16.30;99.90
3466;DHT22;1747;48.884;9.160;2022-08-21T06:06:21;16.30;99.90
3466;DHT22;1747;48.884;9.160;2022-08-21T06:08:48;16.20;99.90
3466;DHT22;1747;48.884;9.160;2022-08-21T06:11:15;16.30;99.90
3466;DHT22;1747;48.884;9.160;2022-08-21T06:13:42;16.30;99.90
3466;DHT22;1747;48.884;9.160;2022-08-21T06:16:12;16.30;99.90
3466;DHT22;1747;48.884;9.160;2022-08-21T06:18:40;16.40;99.90
3466;DHT22;1747;48.884;9.160;2022-08-21T06:21:08;16.40;99.90
3466;DHT22;1747;48.884;9.160;2022-08-21T06:23:37;16.60;99.90
3466;DHT22;1747;48.884;9.160;2022-08-21T06:26:06;16.80;99.90
3466;DHT22;1747;48.884;9.160;2022-08-21T06:28:34;17.00;99.90
3466;DHT22;1747;48.884;9.160;2022-08-21T06:31:01;17.10;99.90
3466;DHT22;1747;48.884;9.160;2022-08-21T06:33:37;17.20;99.90
3466;DHT22;1747;48.884;9.160;2022-08-21T06:36:04;17.30;99.90
3466;DHT22;1747;48.884;9.160;2022-08-21T06:38:31;17.40;99.90
3466;DHT22;1747;48.884;9.160;2022-08-21T06:40:58;17.50;99.90
3466;DHT22;1747;48.884;9.160;2022-08-21T06:43:24;17.60;99.90
3466;DHT22;1747;48.884;9.160;2022-08-21T06:45:51;17.80;99.90
3466;DHT22;1747;48.884;9.160;2022-08-21T06:48:18;17.80;99.90
3466;DHT22;1747;48.884;9.160;2022-08-21T06:50:47;18.00;99.90
3466;DHT22;1747;48.884;9.160;2022-08-21T06:53:16;18.10;99.90
3466;DHT22;1747;48.884;9.160;2022-08-21T06:55:43;18.20;99.90
3466;DHT22;1747;48.884;9.160;2022-08-21T06:58:11;18.30;99.90
3466;DHT22;1747;48.884;9.160;2022-08-21T07:00:40;18.40;99.90
3466;DHT22;1747;48.884;9.160;2022-08-21T07:03:07;18.60;99.90
3466;DHT22;1747;48.884;9.160;2022-08-21T07:05:34;18.70;99.90
3466;DHT22;1747;48.884;9.160;2022-08-21T07:08:02;18.70;99.90
3466;DHT22;1747;48.884;9.160;2022-08-21T07:10:29;18.80;99.90
3466;DHT22;1747;48.884;9.160;2022-08-21T07:12:56;19.00;99.90
3466;DHT22;1747;48.884;9.160;2022-08-21T07:15:23;19.10;99.90
3466;DHT22;1747;48.884;9.160;2022-08-21T07:17:50;19.20;99.90
3466;DHT22;1747;48.884;9.160;2022-08-21T07:20:17;19.30;99.90
3466;DHT22;1747;48.884;9.160;2022-08-21T07:22:44;19.30;99.90
3466;DHT22;1747;48.884;9.160;2022-08-21T07:25:12;19.50;99.90
3466;DHT22;1747;48.884;9.160;2022-08-21T07:27:39;19.60;99.90
3466;DHT22;1747;48.884;9.160;2022-08-21T07:30:07;19.80;99.90
3466;DHT22;1747;48.884;9.160;2022-08-21T07:32:33;19.90;99.90
3466;DHT22;1747;48.884;9.160;2022-08-21T07:35:00;20.00;99.90
3466;DHT22;1747;48.884;9.160;2022-08-21T07:37:27;20.10;99.90
3466;DHT22;1747;48.884;9.160;2022-08-21T07:39:54;20.20;99.90
3466;DHT22;1747;48.884;9.160;2022-08-21T07:42:23;20.30;99.90
3466;DHT22;1747;48.884;9.160;2022-08-21T07:44:50;20.40;99.90
3466;DHT22;1747;48.884;9.160;2022-08-21T07:47:17;20.50;99.90
3466;DHT22;1747;48.884;9.160;2022-08-21T07:49:43;20.70;99.90
3466;DHT22;1747;48.884;9.160;2022-08-21T07:52:11;20.80;99.90
3466;DHT22;1747;48.884;9.160;2022-08-21T07:54:38;20.90;99.90
3466;DHT22;1747;48.884;9.160;2022-08-21T07:57:05;21.00;99.90
3466;DHT22;1747;48.884;9.160;2022-08-21T07:59:33;21.10;99.90
3466;DHT22;1747;48.884;9.160;2022-08-21T08:02:00;21.30;99.90
3466;DHT22;1747;48.884;9.160;2022-08-21T08:04:27;21.40;99.90
3466;DHT22;1747;48.884;9.160;2022-08-21T08:06:54;21.50;99.90
3466;DHT22;1747;48.884;9.160;2022-08-21T08:09:20;21.60;99.90
3466;DHT22;1747;48.884;9.160;2022-08-21T08:11:47;21.60;99.90
3466;DHT22;1747;48.884;9.160;2022-08-21T08:14:14;21.70;99.90
3466;DHT22;1747;48.884;9.160;2022-08-21T08:16:43;21.70;99.70
3466;DHT22;1747;48.884;9.160;2022-08-21T08:19:10;21.80;99.80
3466;DHT22;1747;48.884;9.160;2022-08-21T08:21:37;21.90;99.50
3466;DHT22;1747;48.884;9.160;2022-08-21T08:24:04;22.00;99.70
3466;DHT22;1747;48.884;9.160;2022-08-21T08:26:31;22.10;99.60
3466;DHT22;1747;48.884;9.160;2022-08-21T08:28:58;22.30;98.70
3466;DHT22;1747;48.884;9.160;2022-08-21T08:31:25;22.40;98.10
3466;DHT22;1747;48.884;9.160;2022-08-21T08:33:54;22.50;98.20
3466;DHT22;1747;48.884;9.160;2022-08-21T08:36:31;22.60;98.20
3466;DHT22;1747;48.884;9.160;2022-08-21T08:38:58;22.70;98.10
3466;DHT22;1747;48.884;9.160;2022-08-21T08:41:26;22.80;97.80
3466;DHT22;1747;48.884;9.160;2022-08-21T08:43:55;22.90;97.60
3466;DHT22;1747;48.884;9.160;2022-08-21T08:46:29;23.00;97.50
3466;DHT22;1747;48.884;9.160;2022-08-21T08:49:02;23.20;96.60
3466;DHT22;1747;48.884;9.160;2022-08-21T08:51:40;23.30;96.80
3466;DHT22;1747;48.884;9.160;2022-08-21T08:54:11;23.40;96.80
3466;DHT22;1747;48.884;9.160;2022-08-21T08:56:40;23.50;96.80
3466;DHT22;1747;48.884;9.160;2022-08-21T08:59:11;23.50;96.80
3466;DHT22;1747;48.884;9.160;2022-08-21T09:01:40;23.70;96.40
3466;DHT22;1747;48.884;9.160;2022-08-21T09:04:09;23.90;96.70
3466;DHT22;1747;48.884;9.160;2022-08-21T09:06:46;24.00;95.00
3466;DHT22;1747;48.884;9.160;2022-08-21T09:09:28;24.20;95.00
3466;DHT22;1747;48.884;9.160;2022-08-21T09:12:02;24.20;94.40
3466;DHT22;1747;48.884;9.160;2022-08-21T09:14:50;24.20;94.60
3466;DHT22;1747;48.884;9.160;2022-08-21T09:17:36;24.30;94.60
3466;DHT22;1747;48.884;9.160;2022-08-21T09:20:18;24.50;94.10
3466;DHT22;1747;48.884;9.160;2022-08-21T09:22:52;24.60;93.60
3466;DHT22;1747;48.884;9.160;2022-08-21T09:25:26;24.70;92.70
3466;DHT22;1747;48.884;9.160;2022-08-21T09:27:53;24.70;93.00
3466;DHT22;1747;48.884;9.160;2022-08-21T09:30:27;24.90;93.00
3466;DHT22;1747;48.884;9.160;2022-08-21T09:32:54;24.90;93.50
3466;DHT22;1747;48.884;9.160;2022-08-21T09:35:24;24.90;93.60
3466;DHT22;1747;48.884;9.160;2022-08-21T09:37:53;25.00;93.20
3466;DHT22;1747;48.884;9.160;2022-08-21T09:40:30;25.10;93.30
3466;DHT22;1747;48.884;9.160;2022-08-21T09:42:59;25.20;92.60
3466;DHT22;1747;48.884;9.160;2022-08-21T09:45:27;25.30;92.70
3466;DHT22;1747;48.884;9.160;2022-08-21T09:47:54;25.30;92.30
3466;DHT22;1747;48.884;9.160;2022-08-21T09:50:24;25.40;92.00
3466;DHT22;1747;48.884;9.160;2022-08-21T09:52:54;25.40;90.80
3466;DHT22;1747;48.884;9.160;2022-08-21T09:55:31;25.60;90.70
3466;DHT22;1747;48.884;9.160;2022-08-21T09:58:17;25.70;90.00
3466;DHT22;1747;48.884;9.160;2022-08-21T10:00:44;25.80;89.20
3466;DHT22;1747;48.884;9.160;2022-08-21T10:03:17;25.80;88.50
3466;DHT22;1747;48.884;9.160;2022-08-21T10:05:56;25.90;89.50
3466;DHT22;1747;48.884;9.160;2022-08-21T10:08:25;26.00;90.20
3466;DHT22;1747;48.884;9.160;2022-08-21T10:10:56;26.10;89.70
3466;DHT22;1747;48.884;9.160;2022-08-21T10:13:33;26.10;88.90
3466;DHT22;1747;48.884;9.160;2022-08-21T10:16:12;26.20;87.80
3466;DHT22;1747;48.884;9.160;2022-08-21T10:18:44;26.20;85.20
3466;DHT22;1747;48.884;9.160;2022-08-21T10:21:20;26.20;85.40
3466;DHT22;1747;48.884;9.160;2022-08-21T10:23:56;26.20;84.80
3466;DHT22;1747;48.884;9.160;2022-08-21T10:26:35;26.20;84.70
3466;DHT22;1747;48.884;9.160;2022-08-21T10:29:13;26.40;83.50
3466;DHT22;1747;48.884;9.160;2022-08-21T10:31:46;26.40;83.80
3466;DHT22;1747;48.884;9.160;2022-08-21T10:34:27;26.50;82.30
3466;DHT22;1747;48.884;9.160;2022-08-21T10:37:16;26.50;82.40
3466;DHT22;1747;48.884;9.160;2022-08-21T10:39:51;26.50;82.60
3466;DHT22;1747;48.884;9.160;2022-08-21T10:42:32;26.60;81.90
3466;DHT22;1747;48.884;9.160;2022-08-21T10:45:08;26.60;80.70
3466;DHT22;1747;48.884;9.160;2022-08-21T10:47:44;26.60;81.00
3466;DHT22;1747;48.884;9.160;2022-08-21T10:50:19;26.60;80.60
3466;DHT22;1747;48.884;9.160;2022-08-21T10:53:15;26.60;78.80
3466;DHT22;1747;48.884;9.160;2022-08-21T10:55:47;26.60;80.60
3466;DHT22;1747;48.884;9.160;2022-08-21T10:58:22;26.70;80.30
3466;DHT22;1747;48.884;9.160;2022-08-21T11:00:56;26.80;78.50
3466;DHT22;1747;48.884;9.160;2022-08-21T11:03:29;26.80;80.90
3466;DHT22;1747;48.884;9.160;2022-08-21T11:06:02;26.80;77.90
3466;DHT22;1747;48.884;9.160;2022-08-21T11:08:37;27.00;78.30
3466;DHT22;1747;48.884;9.160;2022-08-21T11:11:10;27.10;77.30
3466;DHT22;1747;48.884;9.160;2022-08-21T11:13:40;27.20;75.80
3466;DHT22;1747;48.884;9.160;2022-08-21T11:16:16;27.30;75.20
3466;DHT22;1747;48.884;9.160;2022-08-21T11:18:47;27.20;76.00
3466;DHT22;1747;48.884;9.160;2022-08-21T11:21:27;27.20;75.40
3466;DHT22;1747;48.884;9.160;2022-08-21T11:24:03;27.20;75.10
3466;DHT22;1747;48.884;9.160;2022-08-21T11:26:37;27.30;75.00
3466;DHT22;1747;48.884;9.160;2022-08-21T11:29:09;27.20;72.30
3466;DHT22;1747;48.884;9.160;2022-08-21T11:31:46;27.30;73.70
3466;DHT22;1747;48.884;9.160;2022-08-21T11:34:22;27.40;72.40
3466;DHT22;1747;48.884;9.160;2022-08-21T11:36:55;27.20;71.00
3466;DHT22;1747;48.884;9.160;2022-08-21T11:39:32;27.30;73.80
3466;DHT22;1747;48.884;9.160;2022-08-21T11:42:09;27.40;74.50
3466;DHT22;1747;48.884;9.160;2022-08-21T11:44:47;27.60;74.60
3466;DHT22;1747;48.884;9.160;2022-08-21T11:47:19;27.60;72.20
3466;DHT22;1747;48.884;9.160;2022-08-21T11:49:57;27.70;70.90
3466;DHT22;1747;48.884;9.160;2022-08-21T11:52:33;27.80;72.30
3466;DHT22;1747;48.884;9.160;2022-08-21T11:55:06;28.00;69.60
3466;DHT22;1747;48.884;9.160;2022-08-21T11:57:39;28.20;70.50
3466;DHT22;1747;48.884;9.160;2022-08-21T12:00:15;28.40;70.10
3466;DHT22;1747;48.884;9.160;2022-08-21T12:02:46;28.90;69.90
3466;DHT22;1747;48.884;9.160;2022-08-21T12:05:25;29.20;66.20
3466;DHT22;1747;48.884;9.160;2022-08-21T12:08:02;29.70;65.60
3466;DHT22;1747;48.884;9.160;2022-08-21T12:10:35;30.30;64.80
3466;DHT22;1747;48.884;9.160;2022-08-21T12:13:07;31.00;61.90
3466;DHT22;1747;48.884;9.160;2022-08-21T12:15:35;31.60;62.30
3466;DHT22;1747;48.884;9.160;2022-08-21T12:28:24;33.70;55.80
3466;DHT22;1747;48.884;9.160;2022-08-21T12:30:52;34.20;55.70
3466;DHT22;1747;48.884;9.160;2022-08-21T12:33:23;34.60;53.40
3466;DHT22;1747;48.884;9.160;2022-08-21T12:35:52;34.80;53.20
3466;DHT22;1747;48.884;9.160;2022-08-21T12:38:22;35.00;51.20
3466;DHT22;1747;48.884;9.160;2022-08-21T12:40:53;35.10;50.70
3466;DHT22;1747;48.884;9.160;2022-08-21T12:43:27;35.00;50.50
3466;DHT22;1747;48.884;9.160;2022-08-21T12:45:56;35.40;50.10
3466;DHT22;1747;48.884;9.160;2022-08-21T12:48:26;35.60;48.80
3466;DHT22;1747;48.884;9.160;2022-08-21T12:50:58;35.50;48.30
3466;DHT22;1747;48.884;9.160;2022-08-21T12:53:33;35.80;47.10
3466;DHT22;1747;48.884;9.160;2022-08-21T12:56:03;35.80;46.90
3466;DHT22;1747;48.884;9.160;2022-08-21T12:58:33;35.90;46.90
3466;DHT22;1747;48.884;9.160;2022-08-21T13:01:03;35.80;47.40
3466;DHT22;1747;48.884;9.160;2022-08-21T13:03:31;35.90;47.40
3466;DHT22;1747;48.884;9.160;2022-08-21T13:06:03;36.10;46.40
3466;DHT22;1747;48.884;9.160;2022-08-21T13:08:33;36.70;46.00
3466;DHT22;1747;48.884;9.160;2022-08-21T13:11:04;36.60;45.20
3466;DHT22;1747;48.884;9.160;2022-08-21T13:13:33;36.10;46.00
3466;DHT22;1747;48.884;9.160;2022-08-21T13:16:04;36.20;46.50
3466;DHT22;1747;48.884;9.160;2022-08-21T13:18:34;36.30;46.20
3466;DHT22;1747;48.884;9.160;2022-08-21T13:21:07;36.70;46.80
3466;DHT22;1747;48.884;9.160;2022-08-21T13:23:34;37.30;46.00
3466;DHT22;1747;48.884;9.160;2022-08-21T13:26:01;37.60;44.80
3466;DHT22;1747;48.884;9.160;2022-08-21T13:28:39;37.60;44.10
3466;DHT22;1747;48.884;9.160;2022-08-21T13:31:08;37.50;45.20
3466;DHT22;1747;48.884;9.160;2022-08-21T13:33:37;37.80;44.70
3466;DHT22;1747;48.884;9.160;2022-08-21T13:36:09;37.90;44.60
3466;DHT22;1747;48.884;9.160;2022-08-21T13:38:40;38.50;46.40
3466;DHT22;1747;48.884;9.160;2022-08-21T13:41:13;38.70;44.30
3466;DHT22;1747;48.884;9.160;2022-08-21T13:43:48;38.40;43.30
3466;DHT22;1747;48.884;9.160;2022-08-21T13:46:17;38.90;43.60
3466;DHT22;1747;48.884;9.160;2022-08-21T13:48:44;39.10;42.70
3466;DHT22;1747;48.884;9.160;2022-08-21T13:51:11;39.30;43.80
3466;DHT22;1747;48.884;9.160;2022-08-21T13:53:45;40.10;41.90
3466;DHT22;1747;48.884;9.160;2022-08-21T13:56:23;39.90;41.80
3466;DHT22;1747;48.884;9.160;2022-08-21T13:58:54;40.10;41.70
3466;DHT22;1747;48.884;9.160;2022-08-21T14:01:23;39.60;43.10
3466;DHT22;1747;48.884;9.160;2022-08-21T14:03:54;39.20;40.70
3466;DHT22;1747;48.884;9.160;2022-08-21T14:06:25;39.10;42.30
3466;DHT22;1747;48.884;9.160;2022-08-21T14:08:55;38.70;41.80
3466;DHT22;1747;48.884;9.160;2022-08-21T14:11:23;39.00;42.10
3466;DHT22;1747;48.884;9.160;2022-08-21T14:13:59;39.20;42.20
3466;DHT22;1747;48.884;9.160;2022-08-21T14:16:29;39.40;41.80
3466;DHT22;1747;48.884;9.160;2022-08-21T14:19:16;39.50;41.10
3466;DHT22;1747;48.884;9.160;2022-08-21T14:21:43;40.00;40.20
3466;DHT22;1747;48.884;9.160;2022-08-21T14:24:14;40.10;40.40
3466;DHT22;1747;48.884;9.160;2022-08-21T14:26:46;39.70;42.90
3466;DHT22;1747;48.884;9.160;2022-08-21T14:29:18;40.60;42.50
3466;DHT22;1747;48.884;9.160;2022-08-21T14:31:50;41.10;40.20
3466;DHT22;1747;48.884;9.160;2022-08-21T14:34:17;39.50;39.00
3466;DHT22;1747;48.884;9.160;2022-08-21T14:36:44;38.80;41.40
3466;DHT22;1747;48.884;9.160;2022-08-21T14:39:12;39.30;41.20
3466;DHT22;1747;48.884;9.160;2022-08-21T14:41:39;39.70;40.40
3466;DHT22;1747;48.884;9.160;2022-08-21T14:44:07;40.20;40.80
3466;DHT22;1747;48.884;9.160;2022-08-21T14:46:36;40.40;40.00
3466;DHT22;1747;48.884;9.160;2022-08-21T14:49:03;40.70;40.10
3466;DHT22;1747;48.884;9.160;2022-08-21T14:51:30;40.80;39.90
3466;DHT22;1747;48.884;9.160;2022-08-21T14:53:57;40.70;38.70
3466;DHT22;1747;48.884;9.160;2022-08-21T14:56:24;40.50;39.70
3466;DHT22;1747;48.884;9.160;2022-08-21T14:58:52;40.60;38.70
3466;DHT22;1747;48.884;9.160;2022-08-21T15:01:22;40.60;39.40
3466;DHT22;1747;48.884;9.160;2022-08-21T15:03:50;40.80;38.80
3466;DHT22;1747;48.884;9.160;2022-08-21T15:06:18;40.70;39.50
3466;DHT22;1747;48.884;9.160;2022-08-21T15:08:46;41.00;39.00
3466;DHT22;1747;48.884;9.160;2022-08-21T15:11:17;40.50;38.80
3466;DHT22;1747;48.884;9.160;2022-08-21T15:13:44;39.90;42.70
3466;DHT22;1747;48.884;9.160;2022-08-21T15:16:11;39.10;40.60
3466;DHT22;1747;48.884;9.160;2022-08-21T15:18:39;38.50;43.60
3466;DHT22;1747;48.884;9.160;2022-08-21T15:21:08;37.80;41.00
3466;DHT22;1747;48.884;9.160;2022-08-21T15:23:35;37.20;41.80
3466;DHT22;1747;48.884;9.160;2022-08-21T15:26:02;37.30;41.80
3466;DHT22;1747;48.884;9.160;2022-08-21T15:28:30;38.00;43.60
3466;DHT22;1747;48.884;9.160;2022-08-21T15:30:56;38.50;43.00
3466;DHT22;1747;48.884;9.160;2022-08-21T15:33:25;38.90;40.70
3466;DHT22;1747;48.884;9.160;2022-08-21T15:35:52;39.40;41.40
3466;DHT22;1747;48.884;9.160;2022-08-21T15:38:20;39.40;39.10
3466;DHT22;1747;48.884;9.160;2022-08-21T15:40:47;39.50;40.20
3466;DHT22;1747;48.884;9.160;2022-08-21T15:43:21;39.80;39.10
3466;DHT22;1747;48.884;9.160;2022-08-21T15:45:49;39.60;39.30
3466;DHT22;1747;48.884;9.160;2022-08-21T15:48:16;39.40;40.00
3466;DHT22;1747;48.884;9.160;2022-08-21T15:50:43;38.90;40.30
3466;DHT22;1747;48.884;9.160;2022-08-21T15:53:10;38.80;40.50
3466;DHT22;1747;48.884;9.160;2022-08-21T15:55:39;38.80;42.00
3466;DHT22;1747;48.884;9.160;2022-08-21T15:58:06;38.40;40.80
3466;DHT22;1747;48.884;9.160;2022-08-21T16:00:35;37.80;41.10
3466;DHT22;1747;48.884;9.160;2022-08-21T16:03:04;37.40;41.00
3466;DHT22;1747;48.884;9.160;2022-08-21T16:05:32;37.00;41.40
3466;DHT22;1747;48.884;9.160;2022-08-21T16:07:59;36.30;42.60
3466;DHT22;1747;48.884;9.160;2022-08-21T16:10:26;35.70;42.60
3466;DHT22;1747;48.884;9.160;2022-08-21T16:12:57;35.60;43.70
3466;DHT22;1747;48.884;9.160;2022-08-21T16:15:25;35.30;43.60
3466;DHT22;1747;48.884;9.160;2022-08-21T16:17:53;35.10;45.40
3466;DHT22;1747;48.884;9.160;2022-08-21T16:20:22;35.00;44.50
3466;DHT22;1747;48.884;9.160;2022-08-21T16:22:51;34.80;43.40
3466;DHT22;1747;48.884;9.160;2022-08-21T16:25:18;34.60;44.90
3466;DHT22;1747;48.884;9.160;2022-08-21T16:27:48;34.40;44.60